sensor_id;sensor_type;location;lat;lon;timestamp;P1;durP1;ratioP1;P2;durP2;ratioP2
72761;SDS011;60886;55.034;73.150;2023-04-19T00:01:23;10.30;;;4.07;;
72761;SDS011;60886;55.034;73.150;2023-04-19T00:04:25;11.05;;;4.20;;
72761;SDS011;60886;55.034;73.150;2023-04-19T00:07:31;9.67;;;3.77;;
72761;SDS011;60886;55.034;73.150;2023-04-19T00:10:43;9.70;;;3.90;;
72761;SDS011;60886;55.034;73.150;2023-04-19T00:13:44;9.30;;;3.70;;
72761;SDS011;60886;55.034;73.150;2023-04-19T00:16:46;9.60;;;3.83;;
72761;SDS011;60886;55.034;73.150;2023-04-19T00:19:58;10.82;;;3.78;;
72761;SDS011;60886;55.034;73.150;2023-04-19T00:22:59;9.48;;;4.22;;
72761;SDS011;60886;55.034;73.150;2023-04-19T00:26:01;10.23;;;4.03;;
72761;SDS011;60886;55.034;73.150;2023-04-19T00:29:04;11.80;;;4.30;;
72761;SDS011;60886;55.034;73.150;2023-04-19T00:32:07;11.73;;;4.00;;
72761;SDS011;60886;55.034;73.150;2023-04-19T00:35:09;10.73;;;4.20;;
72761;SDS011;60886;55.034;73.150;2023-04-19T00:38:10;11.32;;;4.05;;
72761;SDS011;60886;55.034;73.150;2023-04-19T00:41:12;11.38;;;3.78;;
72761;SDS011;60886;55.034;73.150;2023-04-19T00:44:13;12.13;;;4.13;;
72761;SDS011;60886;55.034;73.150;2023-04-19T00:47:21;10.77;;;3.95;;
72761;SDS011;60886;55.034;73.150;2023-04-19T00:50:23;11.43;;;4.30;;
72761;SDS011;60886;55.034;73.150;2023-04-19T00:53:25;10.57;;;3.83;;
72761;SDS011;60886;55.034;73.150;2023-04-19T00:56:26;11.55;;;3.95;;
72761;SDS011;60886;55.034;73.150;2023-04-19T00:59:28;9.70;;;3.63;;
72761;SDS011;60886;55.034;73.150;2023-04-19T01:02:31;9.38;;;4.05;;
72761;SDS011;60886;55.034;73.150;2023-04-19T01:05:33;12.33;;;4.17;;
72761;SDS011;60886;55.034;73.150;2023-04-19T01:08:35;12.60;;;4.38;;
72761;SDS011;60886;55.034;73.150;2023-04-19T01:11:46;11.10;;;4.40;;
72761;SDS011;60886;55.034;73.150;2023-04-19T01:14:59;10.26;;;3.86;;
72761;SDS011;60886;55.034;73.150;2023-04-19T01:18:01;20.48;;;4.63;;
72761;SDS011;60886;55.034;73.150;2023-04-19T01:21:03;17.48;;;4.68;;
72761;SDS011;60886;55.034;73.150;2023-04-19T01:24:06;19.95;;;7.10;;
72761;SDS011;60886;55.034;73.150;2023-04-19T01:27:07;36.57;;;9.57;;
72761;SDS011;60886;55.034;73.150;2023-04-19T01:30:09;31.77;;;10.75;;
72761;SDS011;60886;55.034;73.150;2023-04-19T01:33:11;36.55;;;13.13;;
72761;SDS011;60886;55.034;73.150;2023-04-19T01:36:13;30.23;;;11.13;;
72761;SDS011;60886;55.034;73.150;2023-04-19T01:39:16;28.88;;;9.70;;
72761;SDS011;60886;55.034;73.150;2023-04-19T01:42:17;14.67;;;5.80;;
72761;SDS011;60886;55.034;73.150;2023-04-19T01:45:18;13.65;;;4.50;;
72761;SDS011;60886;55.034;73.150;2023-04-19T01:48:23;9.95;;;4.18;;
72761;SDS011;60886;55.034;73.150;2023-04-19T01:51:29;12.07;;;4.05;;
72761;SDS011;60886;55.034;73.150;2023-04-19T01:54:31;14.67;;;4.77;;
72761;SDS011;60886;55.034;73.150;2023-04-19T01:57:32;11.25;;;4.50;;
72761;SDS011;60886;55.034;73.150;2023-04-19T02:00:34;10.57;;;4.67;;
72761;SDS011;60886;55.034;73.150;2023-04-19T02:03:39;13.17;;;5.07;;
72761;SDS011;60886;55.034;73.150;2023-04-19T02:06:40;12.43;;;5.13;;
72761;SDS011;60886;55.034;73.150;2023-04-19T02:09:41;12.50;;;4.80;;
72761;SDS011;60886;55.034;73.150;2023-04-19T02:12:43;12.05;;;5.25;;
72761;SDS011;60886;55.034;73.150;2023-04-19T02:15:46;10.33;;;4.40;;
72761;SDS011;60886;55.034;73.150;2023-04-19T02:19:07;16.63;;;4.43;;
72761;SDS011;60886;55.034;73.150;2023-04-19T02:22:09;13.20;;;4.17;;
72761;SDS011;60886;55.034;73.150;2023-04-19T02:25:13;11.63;;;3.97;;
72761;SDS011;60886;55.034;73.150;2023-04-19T02:28:16;10.50;;;3.93;;
72761;SDS011;60886;55.034;73.150;2023-04-19T02:31:18;14.77;;;4.10;;
72761;SDS011;60886;55.034;73.150;2023-04-19T02:34:19;11.82;;;3.88;;
72761;SDS011;60886;55.034;73.150;2023-04-19T02:37:32;10.68;;;3.92;;
72761;SDS011;60886;55.034;73.150;2023-04-19T02:40:33;12.43;;;3.40;;
72761;SDS011;60886;55.034;73.150;2023-04-19T02:43:34;7.83;;;3.20;;
72761;SDS011;60886;55.034;73.150;2023-04-19T02:46:36;9.10;;;3.33;;
72761;SDS011;60886;55.034;73.150;2023-04-19T02:49:37;10.77;;;4.40;;
72761;SDS011;60886;55.034;73.150;2023-04-19T02:52:42;10.57;;;3.63;;
72761;SDS011;60886;55.034;73.150;2023-04-19T02:55:44;9.37;;;3.53;;
72761;SDS011;60886;55.034;73.150;2023-04-19T02:58:51;12.23;;;4.57;;
72761;SDS011;60886;55.034;73.150;2023-04-19T03:01:53;11.77;;;4.00;;
72761;SDS011;60886;55.034;73.150;2023-04-19T03:04:57;10.63;;;3.67;;
72761;SDS011;60886;55.034;73.150;2023-04-19T03:07:59;13.90;;;4.90;;
72761;SDS011;60886;55.034;73.150;2023-04-19T03:11:00;15.17;;;4.60;;
72761;SDS011;60886;55.034;73.150;2023-04-19T03:14:04;13.82;;;4.68;;
72761;SDS011;60886;55.034;73.150;2023-04-19T03:17:06;9.77;;;4.13;;
72761;SDS011;60886;55.034;73.150;2023-04-19T03:20:08;11.32;;;4.93;;
72761;SDS011;60886;55.034;73.150;2023-04-19T03:23:22;11.75;;;4.70;;
72761;SDS011;60886;55.034;73.150;2023-04-19T03:26:34;11.83;;;4.50;;
72761;SDS011;60886;55.034;73.150;2023-04-19T03:29:37;11.93;;;4.47;;
72761;SDS011;60886;55.034;73.150;2023-04-19T03:32:42;12.03;;;4.97;;
72761;SDS011;60886;55.034;73.150;2023-04-19T03:35:45;11.07;;;4.80;;
72761;SDS011;60886;55.034;73.150;2023-04-19T03:38:47;11.85;;;5.00;;
72761;SDS011;60886;55.034;73.150;2023-04-19T03:41:53;11.05;;;4.68;;
72761;SDS011;60886;55.034;73.150;2023-04-19T03:45:03;10.77;;;4.70;;
72761;SDS011;60886;55.034;73.150;2023-04-19T03:48:08;11.13;;;4.55;;
72761;SDS011;60886;55.034;73.150;2023-04-19T03:51:11;12.77;;;4.90;;
72761;SDS011;60886;55.034;73.150;2023-04-19T03:54:14;11.35;;;4.47;;
72761;SDS011;60886;55.034;73.150;2023-04-19T03:57:26;11.20;;;4.50;;
72761;SDS011;60886;55.034;73.150;2023-04-19T04:00:29;10.27;;;4.70;;
72761;SDS011;60886;55.034;73.150;2023-04-19T04:03:34;11.77;;;4.80;;
72761;SDS011;60886;55.034;73.150;2023-04-19T04:06:38;10.85;;;4.80;;
72761;SDS011;60886;55.034;73.150;2023-04-19T04:09:39;10.20;;;4.33;;
72761;SDS011;60886;55.034;73.150;2023-04-19T04:12:41;9.83;;;4.30;;
72761;SDS011;60886;55.034;73.150;2023-04-19T04:15:45;8.77;;;4.27;;
72761;SDS011;60886;55.034;73.150;2023-04-19T04:18:52;10.77;;;4.78;;
72761;SDS011;60886;55.034;73.150;2023-04-19T04:21:55;12.57;;;4.35;;
72761;SDS011;60886;55.034;73.150;2023-04-19T04:24:57;12.48;;;4.45;;
72761;SDS011;60886;55.034;73.150;2023-04-19T04:28:07;11.80;;;4.55;;
72761;SDS011;60886;55.034;73.150;2023-04-19T04:31:08;12.25;;;4.47;;
72761;SDS011;60886;55.034;73.150;2023-04-19T04:34:14;11.93;;;4.97;;
72761;SDS011;60886;55.034;73.150;2023-04-19T04:37:23;11.60;;;4.80;;
72761;SDS011;60886;55.034;73.150;2023-04-19T04:40:26;11.97;;;4.30;;
72761;SDS011;60886;55.034;73.150;2023-04-19T04:43:37;10.77;;;4.15;;
72761;SDS011;60886;55.034;73.150;2023-04-19T04:46:39;10.23;;;4.20;;
72761;SDS011;60886;55.034;73.150;2023-04-19T04:49:57;9.52;;;4.32;;
72761;SDS011;60886;55.034;73.150;2023-04-19T04:52:59;10.60;;;4.37;;
72761;SDS011;60886;55.034;73.150;2023-04-19T04:56:05;11.82;;;4.22;;
72761;SDS011;60886;55.034;73.150;2023-04-19T04:59:07;10.43;;;4.35;;
72761;SDS011;60886;55.034;73.150;2023-04-19T05:02:15;11.23;;;4.27;;
72761;SDS011;60886;55.034;73.150;2023-04-19T05:05:17;11.75;;;4.60;;
72761;SDS011;60886;55.034;73.150;2023-04-19T05:08:18;12.50;;;4.38;;
72761;SDS011;60886;55.034;73.150;2023-04-19T05:11:21;9.83;;;4.00;;
72761;SDS011;60886;55.034;73.150;2023-04-19T05:14:22;10.87;;;3.73;;
72761;SDS011;60886;55.034;73.150;2023-04-19T05:17:25;10.65;;;4.07;;
72761;SDS011;60886;55.034;73.150;2023-04-19T05:20:27;13.07;;;4.10;;
72761;SDS011;60886;55.034;73.150;2023-04-19T05:23:44;9.38;;;3.90;;
72761;SDS011;60886;55.034;73.150;2023-04-19T05:26:47;9.00;;;3.60;;
72761;SDS011;60886;55.034;73.150;2023-04-19T05:29:57;11.34;;;4.13;;
72761;SDS011;60886;55.034;73.150;2023-04-19T05:32:58;9.73;;;3.72;;
72761;SDS011;60886;55.034;73.150;2023-04-19T05:36:00;9.70;;;3.90;;
72761;SDS011;60886;55.034;73.150;2023-04-19T05:39:02;9.88;;;3.75;;
72761;SDS011;60886;55.034;73.150;2023-04-19T05:42:04;8.93;;;3.97;;
72761;SDS011;60886;55.034;73.150;2023-04-19T05:45:06;9.70;;;3.67;;
72761;SDS011;60886;55.034;73.150;2023-04-19T05:48:08;9.38;;;3.60;;
72761;SDS011;60886;55.034;73.150;2023-04-19T05:51:45;9.63;;;3.90;;
72761;SDS011;60886;55.034;73.150;2023-04-19T05:55:10;11.97;;;4.10;;
72761;SDS011;60886;55.034;73.150;2023-04-19T05:58:16;9.23;;;3.60;;
72761;SDS011;60886;55.034;73.150;2023-04-19T06:01:28;9.70;;;4.00;;
72761;SDS011;60886;55.034;73.150;2023-04-19T06:04:39;9.65;;;3.58;;
72761;SDS011;60886;55.034;73.150;2023-04-19T06:07:50;8.85;;;3.30;;
72761;SDS011;60886;55.034;73.150;2023-04-19T06:10:56;8.30;;;3.50;;
72761;SDS011;60886;55.034;73.150;2023-04-19T06:13:58;10.23;;;3.20;;
72761;SDS011;60886;55.034;73.150;2023-04-19T06:17:10;10.18;;;3.60;;
72761;SDS011;60886;55.034;73.150;2023-04-19T06:20:11;7.72;;;3.50;;
72761;SDS011;60886;55.034;73.150;2023-04-19T06:23:14;8.10;;;3.25;;
72761;SDS011;60886;55.034;73.150;2023-04-19T06:26:21;7.43;;;2.83;;
72761;SDS011;60886;55.034;73.150;2023-04-19T06:29:23;10.25;;;3.20;;
72761;SDS011;60886;55.034;73.150;2023-04-19T06:32:25;8.83;;;3.50;;
72761;SDS011;60886;55.034;73.150;2023-04-19T06:35:27;10.53;;;3.80;;
72761;SDS011;60886;55.034;73.150;2023-04-19T06:38:28;10.27;;;3.45;;
72761;SDS011;60886;55.034;73.150;2023-04-19T06:41:30;8.50;;;3.17;;
72761;SDS011;60886;55.034;73.150;2023-04-19T06:44:32;9.63;;;2.88;;
72761;SDS011;60886;55.034;73.150;2023-04-19T06:47:33;9.40;;;2.93;;
72761;SDS011;60886;55.034;73.150;2023-04-19T06:50:34;9.05;;;2.85;;
72761;SDS011;60886;55.034;73.150;2023-04-19T06:53:36;7.85;;;2.60;;
72761;SDS011;60886;55.034;73.150;2023-04-19T06:56:41;9.45;;;3.08;;
72761;SDS011;60886;55.034;73.150;2023-04-19T06:59:57;10.60;;;2.88;;
72761;SDS011;60886;55.034;73.150;2023-04-19T07:02:58;7.68;;;2.70;;
72761;SDS011;60886;55.034;73.150;2023-04-19T07:06:01;8.25;;;2.70;;
72761;SDS011;60886;55.034;73.150;2023-04-19T07:09:03;6.33;;;2.40;;
72761;SDS011;60886;55.034;73.150;2023-04-19T07:12:06;7.15;;;2.40;;
72761;SDS011;60886;55.034;73.150;2023-04-19T07:15:07;7.88;;;2.35;;
72761;SDS011;60886;55.034;73.150;2023-04-19T07:18:14;8.85;;;2.45;;
72761;SDS011;60886;55.034;73.150;2023-04-19T07:21:16;7.30;;;2.20;;
72761;SDS011;60886;55.034;73.150;2023-04-19T07:24:17;9.02;;;2.50;;
72761;SDS011;60886;55.034;73.150;2023-04-19T07:27:19;7.50;;;2.13;;
72761;SDS011;60886;55.034;73.150;2023-04-19T07:30:21;7.97;;;2.10;;
72761;SDS011;60886;55.034;73.150;2023-04-19T07:33:22;8.40;;;2.37;;
72761;SDS011;60886;55.034;73.150;2023-04-19T07:36:32;11.13;;;2.80;;
72761;SDS011;60886;55.034;73.150;2023-04-19T07:39:35;8.20;;;2.20;;
72761;SDS011;60886;55.034;73.150;2023-04-19T07:42:36;8.50;;;2.43;;
72761;SDS011;60886;55.034;73.150;2023-04-19T07:45:38;8.05;;;2.08;;
72761;SDS011;60886;55.034;73.150;2023-04-19T07:48:40;7.18;;;2.22;;
72761;SDS011;60886;55.034;73.150;2023-04-19T07:51:46;8.25;;;2.42;;
72761;SDS011;60886;55.034;73.150;2023-04-19T07:54:56;6.55;;;2.10;;
72761;SDS011;60886;55.034;73.150;2023-04-19T07:57:59;8.32;;;2.00;;
72761;SDS011;60886;55.034;73.150;2023-04-19T08:01:01;6.53;;;2.00;;
72761;SDS011;60886;55.034;73.150;2023-04-19T08:04:03;6.60;;;1.80;;
72761;SDS011;60886;55.034;73.150;2023-04-19T08:07:05;5.97;;;1.97;;
72761;SDS011;60886;55.034;73.150;2023-04-19T08:10:17;7.10;;;2.10;;
72761;SDS011;60886;55.034;73.150;2023-04-19T08:13:20;5.77;;;1.83;;
72761;SDS011;60886;55.034;73.150;2023-04-19T08:16:21;6.78;;;1.85;;
72761;SDS011;60886;55.034;73.150;2023-04-19T08:19:23;7.18;;;1.90;;
72761;SDS011;60886;55.034;73.150;2023-04-19T08:22:24;8.90;;;3.07;;
72761;SDS011;60886;55.034;73.150;2023-04-19T08:25:37;7.33;;;2.73;;
72761;SDS011;60886;55.034;73.150;2023-04-19T08:28:38;5.93;;;1.92;;
72761;SDS011;60886;55.034;73.150;2023-04-19T08:31:42;5.83;;;1.63;;
72761;SDS011;60886;55.034;73.150;2023-04-19T08:34:44;5.85;;;1.65;;
72761;SDS011;60886;55.034;73.150;2023-04-19T08:37:46;6.37;;;1.87;;
72761;SDS011;60886;55.034;73.150;2023-04-19T08:40:51;7.30;;;1.80;;
72761;SDS011;60886;55.034;73.150;2023-04-19T08:43:55;5.40;;;1.80;;
72761;SDS011;60886;55.034;73.150;2023-04-19T08:46:58;6.50;;;1.60;;
72761;SDS011;60886;55.034;73.150;2023-04-19T08:50:02;5.99;;;1.71;;
72761;SDS011;60886;55.034;73.150;2023-04-19T08:53:06;6.90;;;1.77;;
72761;SDS011;60886;55.034;73.150;2023-04-19T08:56:09;5.73;;;1.77;;
72761;SDS011;60886;55.034;73.150;2023-04-19T08:59:11;5.80;;;1.80;;
72761;SDS011;60886;55.034;73.150;2023-04-19T09:02:13;7.32;;;1.90;;
72761;SDS011;60886;55.034;73.150;2023-04-19T09:05:15;6.28;;;1.75;;
72761;SDS011;60886;55.034;73.150;2023-04-19T09:08:28;6.37;;;1.77;;
72761;SDS011;60886;55.034;73.150;2023-04-19T09:11:35;6.33;;;1.50;;
72761;SDS011;60886;55.034;73.150;2023-04-19T09:14:41;5.88;;;1.60;;
72761;SDS011;60886;55.034;73.150;2023-04-19T09:17:45;6.23;;;1.70;;
72761;SDS011;60886;55.034;73.150;2023-04-19T09:21:05;7.25;;;1.77;;
72761;SDS011;60886;55.034;73.150;2023-04-19T09:24:07;6.80;;;2.00;;
72761;SDS011;60886;55.034;73.150;2023-04-19T09:27:09;6.63;;;1.90;;
72761;SDS011;60886;55.034;73.150;2023-04-19T09:30:12;7.47;;;2.07;;
72761;SDS011;60886;55.034;73.150;2023-04-19T09:33:21;5.90;;;1.80;;
72761;SDS011;60886;55.034;73.150;2023-04-19T09:36:35;6.60;;;1.95;;
72761;SDS011;60886;55.034;73.150;2023-04-19T09:39:37;5.97;;;2.10;;
72761;SDS011;60886;55.034;73.150;2023-04-19T09:42:44;6.53;;;1.80;;
72761;SDS011;60886;55.034;73.150;2023-04-19T09:45:52;5.63;;;1.90;;
72761;SDS011;60886;55.034;73.150;2023-04-19T09:48:53;6.40;;;2.00;;
72761;SDS011;60886;55.034;73.150;2023-04-19T09:51:55;5.97;;;1.90;;
72761;SDS011;60886;55.034;73.150;2023-04-19T09:54:58;5.20;;;1.80;;
72761;SDS011;60886;55.034;73.150;2023-04-19T09:58:04;6.47;;;1.95;;
72761;SDS011;60886;55.034;73.150;2023-04-19T10:01:08;7.57;;;2.27;;
72761;SDS011;60886;55.034;73.150;2023-04-19T10:04:12;6.85;;;2.00;;
72761;SDS011;60886;55.034;73.150;2023-04-19T10:07:24;6.20;;;1.87;;
72761;SDS011;60886;55.034;73.150;2023-04-19T10:10:26;8.27;;;2.50;;
72761;SDS011;60886;55.034;73.150;2023-04-19T10:13:30;7.82;;;2.17;;
72761;SDS011;60886;55.034;73.150;2023-04-19T10:16:32;5.60;;;1.90;;
72761;SDS011;60886;55.034;73.150;2023-04-19T10:19:35;5.90;;;2.20;;
72761;SDS011;60886;55.034;73.150;2023-04-19T10:22:37;6.47;;;2.00;;
72761;SDS011;60886;55.034;73.150;2023-04-19T10:25:54;6.38;;;2.10;;
72761;SDS011;60886;55.034;73.150;2023-04-19T10:28:57;7.10;;;2.30;;
72761;SDS011;60886;55.034;73.150;2023-04-19T10:31:59;6.50;;;2.27;;
72761;SDS011;60886;55.034;73.150;2023-04-19T10:35:21;6.57;;;2.55;;
72761;SDS011;60886;55.034;73.150;2023-04-19T10:38:43;6.80;;;2.20;;
72761;SDS011;60886;55.034;73.150;2023-04-19T10:41:56;8.55;;;2.70;;
72761;SDS011;60886;55.034;73.150;2023-04-19T10:48:33;7.68;;;2.55;;
72761;SDS011;60886;55.034;73.150;2023-04-19T10:51:39;6.93;;;2.42;;
72761;SDS011;60886;55.034;73.150;2023-04-19T10:54:44;8.00;;;2.80;;
72761;SDS011;60886;55.034;73.150;2023-04-19T10:58:05;8.70;;;2.60;;
72761;SDS011;60886;55.034;73.150;2023-04-19T11:05:00;8.27;;;2.18;;
72761;SDS011;60886;55.034;73.150;2023-04-19T11:08:05;8.88;;;3.35;;
72761;SDS011;60886;55.034;73.150;2023-04-19T11:11:08;7.53;;;2.70;;
72761;SDS011;60886;55.034;73.150;2023-04-19T11:14:21;7.53;;;2.65;;
72761;SDS011;60886;55.034;73.150;2023-04-19T11:17:24;7.43;;;2.50;;
72761;SDS011;60886;55.034;73.150;2023-04-19T11:20:31;7.20;;;2.53;;
72761;SDS011;60886;55.034;73.150;2023-04-19T11:23:32;7.57;;;2.83;;
72761;SDS011;60886;55.034;73.150;2023-04-19T11:26:33;6.97;;;2.42;;
72761;SDS011;60886;55.034;73.150;2023-04-19T11:29:40;7.78;;;2.60;;
72761;SDS011;60886;55.034;73.150;2023-04-19T11:32:45;6.82;;;2.45;;
72761;SDS011;60886;55.034;73.150;2023-04-19T11:35:48;8.83;;;2.63;;
72761;SDS011;60886;55.034;73.150;2023-04-19T11:38:49;6.97;;;2.25;;
72761;SDS011;60886;55.034;73.150;2023-04-19T11:41:52;9.18;;;2.60;;
72761;SDS011;60886;55.034;73.150;2023-04-19T11:45:04;6.50;;;2.50;;
72761;SDS011;60886;55.034;73.150;2023-04-19T11:48:07;6.47;;;2.45;;
72761;SDS011;60886;55.034;73.150;2023-04-19T11:51:15;7.77;;;2.40;;
72761;SDS011;60886;55.034;73.150;2023-04-19T11:54:16;8.13;;;2.60;;
72761;SDS011;60886;55.034;73.150;2023-04-19T11:57:28;6.73;;;2.67;;
72761;SDS011;60886;55.034;73.150;2023-04-19T12:00:31;6.88;;;2.65;;
72761;SDS011;60886;55.034;73.150;2023-04-19T12:03:33;6.85;;;2.40;;
72761;SDS011;60886;55.034;73.150;2023-04-19T12:07:01;6.90;;;2.35;;
72761;SDS011;60886;55.034;73.150;2023-04-19T12:10:08;6.93;;;2.40;;
72761;SDS011;60886;55.034;73.150;2023-04-19T12:13:17;6.50;;;2.38;;
72761;SDS011;60886;55.034;73.150;2023-04-19T12:16:28;7.22;;;2.55;;
72761;SDS011;60886;55.034;73.150;2023-04-19T12:19:33;6.73;;;2.40;;
72761;SDS011;60886;55.034;73.150;2023-04-19T12:22:36;6.40;;;2.17;;
72761;SDS011;60886;55.034;73.150;2023-04-19T12:25:38;6.55;;;2.35;;
72761;SDS011;60886;55.034;73.150;2023-04-19T12:28:40;7.40;;;2.50;;
72761;SDS011;60886;55.034;73.150;2023-04-19T12:31:42;6.53;;;2.35;;
72761;SDS011;60886;55.034;73.150;2023-04-19T12:34:43;7.18;;;2.50;;
72761;SDS011;60886;55.034;73.150;2023-04-19T12:37:45;7.28;;;2.63;;
72761;SDS011;60886;55.034;73.150;2023-04-19T12:40:46;9.07;;;2.50;;
72761;SDS011;60886;55.034;73.150;2023-04-19T12:43:48;9.40;;;2.72;;
72761;SDS011;60886;55.034;73.150;2023-04-19T12:46:49;10.93;;;2.92;;
72761;SDS011;60886;55.034;73.150;2023-04-19T12:49:56;7.56;;;2.70;;
72761;SDS011;60886;55.034;73.150;2023-04-19T12:52:58;9.38;;;3.05;;
72761;SDS011;60886;55.034;73.150;2023-04-19T12:55:59;8.23;;;2.88;;
72761;SDS011;60886;55.034;73.150;2023-04-19T12:59:01;9.02;;;3.30;;
72761;SDS011;60886;55.034;73.150;2023-04-19T13:02:12;8.40;;;3.35;;
72761;SDS011;60886;55.034;73.150;2023-04-19T13:05:14;9.10;;;3.33;;
72761;SDS011;60886;55.034;73.150;2023-04-19T13:08:15;9.93;;;3.50;;
72761;SDS011;60886;55.034;73.150;2023-04-19T13:11:20;10.65;;;3.72;;
72761;SDS011;60886;55.034;73.150;2023-04-19T13:14:24;8.63;;;3.50;;
72761;SDS011;60886;55.034;73.150;2023-04-19T13:17:26;10.75;;;3.67;;
72761;SDS011;60886;55.034;73.150;2023-04-19T13:20:28;8.90;;;3.73;;
72761;SDS011;60886;55.034;73.150;2023-04-19T13:23:32;9.25;;;4.05;;
72761;SDS011;60886;55.034;73.150;2023-04-19T13:26:33;9.63;;;3.87;;
72761;SDS011;60886;55.034;73.150;2023-04-19T13:29:35;12.93;;;4.18;;
72761;SDS011;60886;55.034;73.150;2023-04-19T13:32:37;9.90;;;4.60;;
72761;SDS011;60886;55.034;73.150;2023-04-19T13:35:39;11.50;;;4.75;;
72761;SDS011;60886;55.034;73.150;2023-04-19T13:38:41;10.30;;;4.13;;
72761;SDS011;60886;55.034;73.150;2023-04-19T13:41:43;13.30;;;4.63;;
72761;SDS011;60886;55.034;73.150;2023-04-19T13:44:44;15.15;;;5.63;;
72761;SDS011;60886;55.034;73.150;2023-04-19T13:47:46;15.88;;;5.88;;
72761;SDS011;60886;55.034;73.150;2023-04-19T13:50:48;13.48;;;4.68;;
72761;SDS011;60886;55.034;73.150;2023-04-19T13:54:01;14.47;;;5.10;;
72761;SDS011;60886;55.034;73.150;2023-04-19T13:57:03;11.35;;;4.70;;
72761;SDS011;60886;55.034;73.150;2023-04-19T14:00:04;10.03;;;4.73;;
72761;SDS011;60886;55.034;73.150;2023-04-19T14:03:09;11.23;;;5.03;;
72761;SDS011;60886;55.034;73.150;2023-04-19T14:06:10;12.98;;;5.28;;
72761;SDS011;60886;55.034;73.150;2023-04-19T14:09:14;16.35;;;5.75;;
72761;SDS011;60886;55.034;73.150;2023-04-19T14:12:15;17.40;;;7.23;;
72761;SDS011;60886;55.034;73.150;2023-04-19T14:15:17;23.30;;;7.60;;
72761;SDS011;60886;55.034;73.150;2023-04-19T14:18:20;19.40;;;6.75;;
72761;SDS011;60886;55.034;73.150;2023-04-19T14:21:21;18.70;;;8.10;;
72761;SDS011;60886;55.034;73.150;2023-04-19T14:24:23;18.47;;;8.47;;
72761;SDS011;60886;55.034;73.150;2023-04-19T14:27:35;20.20;;;8.68;;
72761;SDS011;60886;55.034;73.150;2023-04-19T14:30:37;18.23;;;8.60;;
72761;SDS011;60886;55.034;73.150;2023-04-19T14:33:39;16.23;;;7.28;;
72761;SDS011;60886;55.034;73.150;2023-04-19T14:36:41;14.30;;;6.03;;
72761;SDS011;60886;55.034;73.150;2023-04-19T14:39:45;14.35;;;5.90;;
72761;SDS011;60886;55.034;73.150;2023-04-19T14:42:47;13.00;;;5.57;;
72761;SDS011;60886;55.034;73.150;2023-04-19T14:45:49;13.50;;;6.27;;
72761;SDS011;60886;55.034;73.150;2023-04-19T14:48:53;14.73;;;6.40;;
72761;SDS011;60886;55.034;73.150;2023-04-19T14:51:55;16.60;;;7.00;;
72761;SDS011;60886;55.034;73.150;2023-04-19T14:54:56;25.50;;;8.38;;
72761;SDS011;60886;55.034;73.150;2023-04-19T14:57:59;18.05;;;7.85;;
72761;SDS011;60886;55.034;73.150;2023-04-19T15:01:09;16.23;;;7.32;;
72761;SDS011;60886;55.034;73.150;2023-04-19T15:04:13;13.35;;;6.55;;
72761;SDS011;60886;55.034;73.150;2023-04-19T15:07:15;14.20;;;6.55;;
72761;SDS011;60886;55.034;73.150;2023-04-19T15:10:17;18.33;;;8.00;;
72761;SDS011;60886;55.034;73.150;2023-04-19T15:13:18;19.67;;;8.10;;
72761;SDS011;60886;55.034;73.150;2023-04-19T15:16:20;17.70;;;7.35;;
72761;SDS011;60886;55.034;73.150;2023-04-19T15:19:21;14.73;;;7.00;;
72761;SDS011;60886;55.034;73.150;2023-04-19T15:22:22;13.50;;;5.88;;
72761;SDS011;60886;55.034;73.150;2023-04-19T15:25:34;11.07;;;4.30;;
72761;SDS011;60886;55.034;73.150;2023-04-19T15:28:36;10.95;;;4.25;;
72761;SDS011;60886;55.034;73.150;2023-04-19T15:31:47;9.50;;;4.30;;
72761;SDS011;60886;55.034;73.150;2023-04-19T15:34:56;13.39;;;4.54;;
72761;SDS011;60886;55.034;73.150;2023-04-19T15:38:00;11.05;;;4.78;;
72761;SDS011;60886;55.034;73.150;2023-04-19T15:41:02;14.83;;;5.10;;
72761;SDS011;60886;55.034;73.150;2023-04-19T15:44:03;16.42;;;5.72;;
72761;SDS011;60886;55.034;73.150;2023-04-19T15:47:05;17.77;;;6.47;;
72761;SDS011;60886;55.034;73.150;2023-04-19T15:50:06;15.47;;;6.10;;
72761;SDS011;60886;55.034;73.150;2023-04-19T15:53:09;15.27;;;6.07;;
72761;SDS011;60886;55.034;73.150;2023-04-19T15:56:10;18.33;;;5.77;;
72761;SDS011;60886;55.034;73.150;2023-04-19T15:59:22;14.85;;;5.25;;
72761;SDS011;60886;55.034;73.150;2023-04-19T16:02:23;15.98;;;5.10;;
72761;SDS011;60886;55.034;73.150;2023-04-19T16:05:25;14.30;;;5.20;;
72761;SDS011;60886;55.034;73.150;2023-04-19T16:08:27;11.60;;;5.15;;
72761;SDS011;60886;55.034;73.150;2023-04-19T16:11:28;13.73;;;5.47;;
72761;SDS011;60886;55.034;73.150;2023-04-19T16:14:30;13.48;;;5.68;;
72761;SDS011;60886;55.034;73.150;2023-04-19T16:17:31;13.67;;;5.97;;
72761;SDS011;60886;55.034;73.150;2023-04-19T16:20:38;13.90;;;5.57;;
72761;SDS011;60886;55.034;73.150;2023-04-19T16:23:40;10.82;;;5.80;;
72761;SDS011;60886;55.034;73.150;2023-04-19T16:26:41;12.73;;;4.97;;
72761;SDS011;60886;55.034;73.150;2023-04-19T16:29:43;11.63;;;4.85;;
72761;SDS011;60886;55.034;73.150;2023-04-19T16:32:44;12.57;;;5.77;;
72761;SDS011;60886;55.034;73.150;2023-04-19T16:35:46;16.15;;;6.25;;
72761;SDS011;60886;55.034;73.150;2023-04-19T16:38:47;20.70;;;7.38;;
72761;SDS011;60886;55.034;73.150;2023-04-19T16:41:49;17.95;;;6.75;;
72761;SDS011;60886;55.034;73.150;2023-04-19T16:44:56;23.04;;;7.56;;
72761;SDS011;60886;55.034;73.150;2023-04-19T16:47:58;20.17;;;7.80;;
72761;SDS011;60886;55.034;73.150;2023-04-19T16:51:04;21.83;;;7.97;;
72761;SDS011;60886;55.034;73.150;2023-04-19T16:54:05;24.25;;;8.77;;
72761;SDS011;60886;55.034;73.150;2023-04-19T16:57:13;23.90;;;8.45;;
72761;SDS011;60886;55.034;73.150;2023-04-19T17:00:15;23.13;;;7.83;;
72761;SDS011;60886;55.034;73.150;2023-04-19T17:03:17;24.17;;;8.55;;
72761;SDS011;60886;55.034;73.150;2023-04-19T17:06:19;24.03;;;7.60;;
72761;SDS011;60886;55.034;73.150;2023-04-19T17:09:20;20.60;;;7.60;;
72761;SDS011;60886;55.034;73.150;2023-04-19T17:12:22;18.97;;;6.80;;
72761;SDS011;60886;55.034;73.150;2023-04-19T17:15:23;15.20;;;6.53;;
72761;SDS011;60886;55.034;73.150;2023-04-19T17:18:30;14.18;;;6.15;;
72761;SDS011;60886;55.034;73.150;2023-04-19T17:21:31;14.03;;;6.13;;
72761;SDS011;60886;55.034;73.150;2023-04-19T17:24:37;14.23;;;5.78;;
72761;SDS011;60886;55.034;73.150;2023-04-19T17:27:39;17.33;;;5.93;;
72761;SDS011;60886;55.034;73.150;2023-04-19T17:30:40;15.20;;;6.38;;
72761;SDS011;60886;55.034;73.150;2023-04-19T17:33:42;15.17;;;6.10;;
72761;SDS011;60886;55.034;73.150;2023-04-19T17:36:44;13.52;;;6.07;;
72761;SDS011;60886;55.034;73.150;2023-04-19T17:39:45;13.63;;;6.10;;
72761;SDS011;60886;55.034;73.150;2023-04-19T17:42:47;12.15;;;5.72;;
72761;SDS011;60886;55.034;73.150;2023-04-19T17:45:58;13.13;;;5.90;;
72761;SDS011;60886;55.034;73.150;2023-04-19T17:49:00;14.10;;;5.97;;
72761;SDS011;60886;55.034;73.150;2023-04-19T17:52:01;14.00;;;6.00;;
72761;SDS011;60886;55.034;73.150;2023-04-19T17:55:03;13.57;;;6.28;;
72761;SDS011;60886;55.034;73.150;2023-04-19T17:58:06;14.52;;;6.25;;
72761;SDS011;60886;55.034;73.150;2023-04-19T18:01:07;11.50;;;5.87;;
72761;SDS011;60886;55.034;73.150;2023-04-19T18:04:10;14.70;;;5.93;;
72761;SDS011;60886;55.034;73.150;2023-04-19T18:07:18;13.65;;;5.90;;
72761;SDS011;60886;55.034;73.150;2023-04-19T18:10:19;12.73;;;6.10;;
72761;SDS011;60886;55.034;73.150;2023-04-19T18:13:31;15.43;;;6.13;;